sensor_id;sensor_type;location;lat;lon;timestamp;P1;durP1;ratioP1;P2;durP2;ratioP2
19842;SDS011;10082;51.038;6.992;2023-04-24T00:00:05;0.90;;;0.80;;
19842;SDS011;10082;51.038;6.992;2023-04-24T00:02:34;1.00;;;0.73;;
19842;SDS011;10082;51.038;6.992;2023-04-24T00:05:03;0.75;;;0.75;;
19842;SDS011;10082;51.038;6.992;2023-04-24T00:07:30;0.70;;;0.70;;
19842;SDS011;10082;51.038;6.992;2023-04-24T00:09:58;0.73;;;0.73;;
19842;SDS011;10082;51.038;6.992;2023-04-24T00:12:28;0.77;;;0.77;;
19842;SDS011;10082;51.038;6.992;2023-04-24T00:14:56;0.82;;;0.50;;
19842;SDS011;10082;51.038;6.992;2023-04-24T00:17:25;0.55;;;0.55;;
19842;SDS011;10082;51.038;6.992;2023-04-24T00:19:52;1.23;;;0.73;;
19842;SDS011;10082;51.038;6.992;2023-04-24T00:22:23;1.10;;;1.00;;
19842;SDS011;10082;51.038;6.992;2023-04-24T00:24:50;1.05;;;0.95;;
19842;SDS011;10082;51.038;6.992;2023-04-24T00:27:18;1.83;;;0.93;;
19842;SDS011;10082;51.038;6.992;2023-04-24T00:29:45;1.10;;;1.00;;
19842;SDS011;10082;51.038;6.992;2023-04-24T00:32:12;1.10;;;1.00;;
19842;SDS011;10082;51.038;6.992;2023-04-24T00:34:41;1.05;;;0.98;;
19842;SDS011;10082;51.038;6.992;2023-04-24T00:37:09;1.65;;;0.80;;
19842;SDS011;10082;51.038;6.992;2023-04-24T00:39:36;1.00;;;0.95;;
19842;SDS011;10082;51.038;6.992;2023-04-24T00:42:04;1.10;;;1.00;;
19842;SDS011;10082;51.038;6.992;2023-04-24T00:44:32;1.20;;;0.80;;
19842;SDS011;10082;51.038;6.992;2023-04-24T00:47:00;2.03;;;0.90;;
19842;SDS011;10082;51.038;6.992;2023-04-24T00:49:28;1.27;;;0.90;;
19842;SDS011;10082;51.038;6.992;2023-04-24T00:51:57;0.95;;;0.90;;
19842;SDS011;10082;51.038;6.992;2023-04-24T00:54:24;0.75;;;0.70;;
19842;SDS011;10082;51.038;6.992;2023-04-24T00:56:51;1.10;;;0.90;;
19842;SDS011;10082;51.038;6.992;2023-04-24T00:59:19;1.35;;;1.10;;
19842;SDS011;10082;51.038;6.992;2023-04-24T01:01:47;1.27;;;0.90;;
19842;SDS011;10082;51.038;6.992;2023-04-24T01:04:14;1.02;;;0.93;;
19842;SDS011;10082;51.038;6.992;2023-04-24T01:06:43;1.00;;;1.00;;
19842;SDS011;10082;51.038;6.992;2023-04-24T01:09:14;1.10;;;1.10;;
19842;SDS011;10082;51.038;6.992;2023-04-24T01:11:43;1.60;;;1.17;;
19842;SDS011;10082;51.038;6.992;2023-04-24T01:14:11;1.73;;;1.08;;
19842;SDS011;10082;51.038;6.992;2023-04-24T01:16:38;1.10;;;1.00;;
19842;SDS011;10082;51.038;6.992;2023-04-24T01:19:06;1.15;;;0.70;;
19842;SDS011;10082;51.038;6.992;2023-04-24T01:21:36;1.00;;;0.90;;
19842;SDS011;10082;51.038;6.992;2023-04-24T01:24:05;1.08;;;0.98;;
19842;SDS011;10082;51.038;6.992;2023-04-24T01:26:33;2.70;;;1.10;;
19842;SDS011;10082;51.038;6.992;2023-04-24T01:29:00;1.20;;;0.98;;
19842;SDS011;10082;51.038;6.992;2023-04-24T01:31:28;2.20;;;1.30;;
19842;SDS011;10082;51.038;6.992;2023-04-24T01:33:55;1.90;;;1.60;;
19842;SDS011;10082;51.038;6.992;2023-04-24T01:36:23;1.13;;;1.02;;
19842;SDS011;10082;51.038;6.992;2023-04-24T01:38:52;1.40;;;1.13;;
19842;SDS011;10082;51.038;6.992;2023-04-24T01:41:23;1.55;;;1.40;;
19842;SDS011;10082;51.038;6.992;2023-04-24T01:43:51;2.92;;;1.73;;
19842;SDS011;10082;51.038;6.992;2023-04-24T01:46:20;1.92;;;1.80;;
19842;SDS011;10082;51.038;6.992;2023-04-24T01:48:47;2.03;;;1.80;;
19842;SDS011;10082;51.038;6.992;2023-04-24T01:51:15;3.10;;;2.22;;
19842;SDS011;10082;51.038;6.992;2023-04-24T01:53:42;2.95;;;2.08;;
19842;SDS011;10082;51.038;6.992;2023-04-24T01:56:09;2.65;;;2.45;;
19842;SDS011;10082;51.038;6.992;2023-04-24T01:58:38;2.72;;;2.30;;
19842;SDS011;10082;51.038;6.992;2023-04-24T02:01:06;2.42;;;2.22;;
19842;SDS011;10082;51.038;6.992;2023-04-24T02:03:33;2.47;;;2.28;;
19842;SDS011;10082;51.038;6.992;2023-04-24T02:06:00;2.63;;;2.42;;
19842;SDS011;10082;51.038;6.992;2023-04-24T02:08:27;2.47;;;2.28;;
19842;SDS011;10082;51.038;6.992;2023-04-24T02:10:54;4.13;;;2.65;;
19842;SDS011;10082;51.038;6.992;2023-04-24T02:13:21;3.25;;;2.90;;
19842;SDS011;10082;51.038;6.992;2023-04-24T02:15:50;3.47;;;3.17;;
19842;SDS011;10082;51.038;6.992;2023-04-24T02:18:17;3.65;;;3.35;;
19842;SDS011;10082;51.038;6.992;2023-04-24T02:20:45;3.83;;;3.53;;
19842;SDS011;10082;51.038;6.992;2023-04-24T02:23:13;4.93;;;4.28;;
19842;SDS011;10082;51.038;6.992;2023-04-24T02:25:40;5.35;;;4.10;;
19842;SDS011;10082;51.038;6.992;2023-04-24T02:28:07;4.72;;;4.22;;
19842;SDS011;10082;51.038;6.992;2023-04-24T02:30:35;4.80;;;4.40;;
19842;SDS011;10082;51.038;6.992;2023-04-24T02:33:04;5.30;;;4.65;;
19842;SDS011;10082;51.038;6.992;2023-04-24T02:35:31;4.90;;;4.40;;
19842;SDS011;10082;51.038;6.992;2023-04-24T02:37:58;5.35;;;4.85;;
19842;SDS011;10082;51.038;6.992;2023-04-24T02:40:25;6.10;;;5.55;;
19842;SDS011;10082;51.038;6.992;2023-04-24T02:42:52;5.90;;;5.30;;
19842;SDS011;10082;51.038;6.992;2023-04-24T02:45:19;7.18;;;5.63;;
19842;SDS011;10082;51.038;6.992;2023-04-24T02:47:46;6.45;;;5.90;;
19842;SDS011;10082;51.038;6.992;2023-04-24T02:50:15;6.10;;;5.60;;
19842;SDS011;10082;51.038;6.992;2023-04-24T02:52:42;6.45;;;5.57;;
19842;SDS011;10082;51.038;6.992;2023-04-24T02:55:12;6.18;;;5.13;;
19842;SDS011;10082;51.038;6.992;2023-04-24T02:57:40;6.45;;;5.47;;
19842;SDS011;10082;51.038;6.992;2023-04-24T03:00:07;6.43;;;5.32;;
19842;SDS011;10082;51.038;6.992;2023-04-24T03:02:36;5.45;;;4.57;;
19842;SDS011;10082;51.038;6.992;2023-04-24T03:05:04;5.63;;;5.10;;
19842;SDS011;10082;51.038;6.992;2023-04-24T03:07:34;6.35;;;5.10;;
19842;SDS011;10082;51.038;6.992;2023-04-24T03:10:02;5.47;;;4.90;;
19842;SDS011;10082;51.038;6.992;2023-04-24T03:12:30;6.78;;;5.40;;
19842;SDS011;10082;51.038;6.992;2023-04-24T03:14:57;8.05;;;5.25;;
19842;SDS011;10082;51.038;6.992;2023-04-24T03:17:24;7.00;;;5.05;;
19842;SDS011;10082;51.038;6.992;2023-04-24T03:19:51;5.85;;;5.25;;
19842;SDS011;10082;51.038;6.992;2023-04-24T03:22:18;6.07;;;5.57;;
19842;SDS011;10082;51.038;6.992;2023-04-24T03:24:48;6.38;;;5.78;;
19842;SDS011;10082;51.038;6.992;2023-04-24T03:27:17;6.13;;;5.60;;
19842;SDS011;10082;51.038;6.992;2023-04-24T03:30:08;5.95;;;5.35;;
19842;SDS011;10082;51.038;6.992;2023-04-24T03:32:50;6.15;;;5.55;;
19842;SDS011;10082;51.038;6.992;2023-04-24T03:35:23;6.20;;;5.50;;
19842;SDS011;10082;51.038;6.992;2023-04-24T03:37:51;6.90;;;5.93;;
19842;SDS011;10082;51.038;6.992;2023-04-24T03:40:58;7.72;;;6.07;;
19842;SDS011;10082;51.038;6.992;2023-04-24T03:43:42;6.20;;;5.55;;
19842;SDS011;10082;51.038;6.992;2023-04-24T03:46:09;7.57;;;6.57;;
19842;SDS011;10082;51.038;6.992;2023-04-24T03:48:44;6.85;;;6.20;;
19842;SDS011;10082;51.038;6.992;2023-04-24T03:51:12;7.65;;;6.35;;
19842;SDS011;10082;51.038;6.992;2023-04-24T03:53:42;6.88;;;6.25;;
19842;SDS011;10082;51.038;6.992;2023-04-24T03:56:13;8.15;;;6.32;;
19842;SDS011;10082;51.038;6.992;2023-04-24T03:58:41;6.72;;;5.90;;
19842;SDS011;10082;51.038;6.992;2023-04-24T04:01:10;7.15;;;6.13;;
19842;SDS011;10082;51.038;6.992;2023-04-24T04:03:37;6.85;;;6.15;;
19842;SDS011;10082;51.038;6.992;2023-04-24T04:06:05;6.35;;;5.75;;
19842;SDS011;10082;51.038;6.992;2023-04-24T04:08:32;7.43;;;6.00;;
19842;SDS011;10082;51.038;6.992;2023-04-24T04:11:00;7.32;;;6.65;;
19842;SDS011;10082;51.038;6.992;2023-04-24T04:13:29;7.82;;;7.22;;
19842;SDS011;10082;51.038;6.992;2023-04-24T04:15:56;7.53;;;6.80;;
19842;SDS011;10082;51.038;6.992;2023-04-24T04:18:23;6.15;;;5.57;;
19842;SDS011;10082;51.038;6.992;2023-04-24T04:20:50;7.43;;;6.72;;
19842;SDS011;10082;51.038;6.992;2023-04-24T04:23:17;9.02;;;7.18;;
19842;SDS011;10082;51.038;6.992;2023-04-24T04:26:00;7.10;;;6.40;;
19842;SDS011;10082;51.038;6.992;2023-04-24T04:28:40;7.32;;;6.55;;
19842;SDS011;10082;51.038;6.992;2023-04-24T04:31:08;7.43;;;5.90;;
19842;SDS011;10082;51.038;6.992;2023-04-24T04:33:35;7.22;;;5.97;;
19842;SDS011;10082;51.038;6.992;2023-04-24T04:36:04;7.53;;;6.72;;
19842;SDS011;10082;51.038;6.992;2023-04-24T04:38:36;7.65;;;6.97;;
19842;SDS011;10082;51.038;6.992;2023-04-24T04:41:13;7.03;;;5.88;;
19842;SDS011;10082;51.038;6.992;2023-04-24T04:43:45;6.65;;;6.05;;
19842;SDS011;10082;51.038;6.992;2023-04-24T04:46:13;7.63;;;6.32;;
19842;SDS011;10082;51.038;6.992;2023-04-24T04:49:02;7.50;;;5.60;;
19842;SDS011;10082;51.038;6.992;2023-04-24T04:51:29;6.25;;;5.75;;
19842;SDS011;10082;51.038;6.992;2023-04-24T04:53:56;6.97;;;5.95;;
19842;SDS011;10082;51.038;6.992;2023-04-24T04:56:32;6.55;;;5.85;;
19842;SDS011;10082;51.038;6.992;2023-04-24T04:59:02;6.30;;;5.32;;
19842;SDS011;10082;51.038;6.992;2023-04-24T05:01:31;6.20;;;5.60;;
19842;SDS011;10082;51.038;6.992;2023-04-24T05:03:59;6.07;;;5.47;;
19842;SDS011;10082;51.038;6.992;2023-04-24T05:06:26;5.93;;;5.32;;
19842;SDS011;10082;51.038;6.992;2023-04-24T05:08:54;6.43;;;5.82;;
19842;SDS011;10082;51.038;6.992;2023-04-24T05:11:38;5.78;;;5.28;;
19842;SDS011;10082;51.038;6.992;2023-04-24T05:14:07;6.57;;;5.97;;
19842;SDS011;10082;51.038;6.992;2023-04-24T05:16:36;6.43;;;5.82;;
19842;SDS011;10082;51.038;6.992;2023-04-24T05:19:04;5.82;;;5.30;;
19842;SDS011;10082;51.038;6.992;2023-04-24T05:21:38;5.20;;;4.60;;
19842;SDS011;10082;51.038;6.992;2023-04-24T05:24:06;7.70;;;5.43;;
19842;SDS011;10082;51.038;6.992;2023-04-24T05:27:06;5.97;;;5.35;;
19842;SDS011;10082;51.038;6.992;2023-04-24T05:29:39;5.68;;;5.18;;
19842;SDS011;10082;51.038;6.992;2023-04-24T05:32:07;5.43;;;4.93;;
19842;SDS011;10082;51.038;6.992;2023-04-24T05:34:34;6.05;;;5.45;;
19842;SDS011;10082;51.038;6.992;2023-04-24T05:37:01;5.80;;;5.10;;
19842;SDS011;10082;51.038;6.992;2023-04-24T05:39:33;6.10;;;5.50;;
19842;SDS011;10082;51.038;6.992;2023-04-24T05:42:00;6.25;;;5.57;;
19842;SDS011;10082;51.038;6.992;2023-04-24T05:44:28;6.70;;;6.00;;
19842;SDS011;10082;51.038;6.992;2023-04-24T05:46:56;6.35;;;5.80;;
19842;SDS011;10082;51.038;6.992;2023-04-24T05:49:24;6.05;;;5.53;;
19842;SDS011;10082;51.038;6.992;2023-04-24T05:51:51;7.70;;;5.78;;
19842;SDS011;10082;51.038;6.992;2023-04-24T05:54:18;6.07;;;5.50;;
19842;SDS011;10082;51.038;6.992;2023-04-24T05:56:45;6.80;;;5.68;;
19842;SDS011;10082;51.038;6.992;2023-04-24T05:59:17;6.28;;;5.50;;
19842;SDS011;10082;51.038;6.992;2023-04-24T06:01:45;6.68;;;5.90;;
19842;SDS011;10082;51.038;6.992;2023-04-24T06:04:19;5.70;;;4.80;;
19842;SDS011;10082;51.038;6.992;2023-04-24T06:06:50;5.63;;;5.13;;
19842;SDS011;10082;51.038;6.992;2023-04-24T06:09:21;5.63;;;5.22;;
19842;SDS011;10082;51.038;6.992;2023-04-24T06:11:48;5.95;;;5.35;;
19842;SDS011;10082;51.038;6.992;2023-04-24T06:14:19;5.18;;;4.68;;
19842;SDS011;10082;51.038;6.992;2023-04-24T06:17:18;5.07;;;4.57;;
19842;SDS011;10082;51.038;6.992;2023-04-24T06:19:48;5.20;;;4.50;;
19842;SDS011;10082;51.038;6.992;2023-04-24T06:22:16;4.68;;;4.25;;
19842;SDS011;10082;51.038;6.992;2023-04-24T06:24:43;6.03;;;4.70;;
19842;SDS011;10082;51.038;6.992;2023-04-24T06:27:13;6.22;;;5.18;;
19842;SDS011;10082;51.038;6.992;2023-04-24T06:29:40;6.82;;;5.40;;
19842;SDS011;10082;51.038;6.992;2023-04-24T06:32:07;5.15;;;3.75;;
19842;SDS011;10082;51.038;6.992;2023-04-24T06:34:34;5.40;;;3.50;;
19842;SDS011;10082;51.038;6.992;2023-04-24T06:37:03;3.97;;;3.65;;
19842;SDS011;10082;51.038;6.992;2023-04-24T06:39:30;2.58;;;2.38;;
19842;SDS011;10082;51.038;6.992;2023-04-24T06:41:58;3.45;;;2.30;;
19842;SDS011;10082;51.038;6.992;2023-04-24T06:44:25;2.90;;;2.50;;
19842;SDS011;10082;51.038;6.992;2023-04-24T06:46:53;3.75;;;2.28;;
19842;SDS011;10082;51.038;6.992;2023-04-24T06:49:20;2.30;;;2.10;;
19842;SDS011;10082;51.038;6.992;2023-04-24T06:51:47;2.30;;;2.10;;
19842;SDS011;10082;51.038;6.992;2023-04-24T06:54:16;2.15;;;2.00;;
19842;SDS011;10082;51.038;6.992;2023-04-24T06:56:43;2.30;;;2.10;;
19842;SDS011;10082;51.038;6.992;2023-04-24T06:59:13;2.10;;;2.00;;
19842;SDS011;10082;51.038;6.992;2023-04-24T07:01:42;2.55;;;1.90;;
19842;SDS011;10082;51.038;6.992;2023-04-24T07:04:09;2.42;;;2.22;;
19842;SDS011;10082;51.038;6.992;2023-04-24T07:06:37;4.38;;;2.33;;
19842;SDS011;10082;51.038;6.992;2023-04-24T07:09:04;3.08;;;2.13;;
19842;SDS011;10082;51.038;6.992;2023-04-24T07:11:35;2.67;;;2.33;;
19842;SDS011;10082;51.038;6.992;2023-04-24T07:14:04;2.85;;;2.30;;
19842;SDS011;10082;51.038;6.992;2023-04-24T07:16:31;2.60;;;2.40;;
19842;SDS011;10082;51.038;6.992;2023-04-24T07:18:58;2.70;;;2.50;;
19842;SDS011;10082;51.038;6.992;2023-04-24T07:21:26;3.10;;;2.63;;
19842;SDS011;10082;51.038;6.992;2023-04-24T07:23:53;3.30;;;2.67;;
19842;SDS011;10082;51.038;6.992;2023-04-24T07:26:20;3.58;;;2.72;;
19842;SDS011;10082;51.038;6.992;2023-04-24T07:28:49;3.40;;;3.10;;
19842;SDS011;10082;51.038;6.992;2023-04-24T07:31:16;3.35;;;3.00;;
19842;SDS011;10082;51.038;6.992;2023-04-24T07:33:44;3.65;;;3.35;;
19842;SDS011;10082;51.038;6.992;2023-04-24T07:36:11;4.13;;;3.58;;
19842;SDS011;10082;51.038;6.992;2023-04-24T07:38:42;4.10;;;3.72;;
19842;SDS011;10082;51.038;6.992;2023-04-24T07:41:12;5.10;;;3.85;;
19842;SDS011;10082;51.038;6.992;2023-04-24T07:43:39;4.03;;;3.65;;
19842;SDS011;10082;51.038;6.992;2023-04-24T07:46:09;4.10;;;2.63;;
19842;SDS011;10082;51.038;6.992;2023-04-24T07:48:36;3.55;;;2.60;;
19842;SDS011;10082;51.038;6.992;2023-04-24T07:51:03;3.03;;;2.40;;
19842;SDS011;10082;51.038;6.992;2023-04-24T07:53:30;2.72;;;2.30;;
19842;SDS011;10082;51.038;6.992;2023-04-24T07:55:58;2.70;;;2.30;;
19842;SDS011;10082;51.038;6.992;2023-04-24T07:58:25;2.73;;;2.53;;
19842;SDS011;10082;51.038;6.992;2023-04-24T08:00:52;2.57;;;2.37;;
19842;SDS011;10082;51.038;6.992;2023-04-24T08:03:21;2.30;;;2.10;;
19842;SDS011;10082;51.038;6.992;2023-04-24T08:05:49;3.08;;;2.70;;
19842;SDS011;10082;51.038;6.992;2023-04-24T08:08:16;2.70;;;2.50;;
19842;SDS011;10082;51.038;6.992;2023-04-24T08:10:43;3.55;;;2.92;;
19842;SDS011;10082;51.038;6.992;2023-04-24T08:13:11;2.60;;;2.40;;
19842;SDS011;10082;51.038;6.992;2023-04-24T08:15:38;3.53;;;2.50;;
19842;SDS011;10082;51.038;6.992;2023-04-24T08:18:06;2.42;;;2.22;;
19842;SDS011;10082;51.038;6.992;2023-04-24T08:20:35;3.57;;;3.03;;
19842;SDS011;10082;51.038;6.992;2023-04-24T08:23:02;3.00;;;2.30;;
19842;SDS011;10082;51.038;6.992;2023-04-24T08:25:29;2.63;;;2.43;;
19842;SDS011;10082;51.038;6.992;2023-04-24T08:27:56;2.80;;;2.60;;
19842;SDS011;10082;51.038;6.992;2023-04-24T08:30:26;3.15;;;2.20;;
19842;SDS011;10082;51.038;6.992;2023-04-24T08:32:54;2.90;;;2.60;;
19842;SDS011;10082;51.038;6.992;2023-04-24T08:35:21;3.23;;;2.37;;
19842;SDS011;10082;51.038;6.992;2023-04-24T08:37:50;2.90;;;2.60;;
19842;SDS011;10082;51.038;6.992;2023-04-24T08:40:19;2.70;;;2.10;;
19842;SDS011;10082;51.038;6.992;2023-04-24T08:42:52;2.63;;;2.43;;
19842;SDS011;10082;51.038;6.992;2023-04-24T08:45:20;3.53;;;2.83;;
19842;SDS011;10082;51.038;6.992;2023-04-24T08:47:48;2.53;;;2.33;;
19842;SDS011;10082;51.038;6.992;2023-04-24T08:50:16;2.50;;;2.20;;
19842;SDS011;10082;51.038;6.992;2023-04-24T08:52:44;3.03;;;2.73;;
19842;SDS011;10082;51.038;6.992;2023-04-24T08:55:12;3.03;;;2.77;;
19842;SDS011;10082;51.038;6.992;2023-04-24T08:57:41;4.23;;;2.80;;
19842;SDS011;10082;51.038;6.992;2023-04-24T09:00:10;3.73;;;3.43;;
19842;SDS011;10082;51.038;6.992;2023-04-24T09:02:39;4.33;;;3.90;;
19842;SDS011;10082;51.038;6.992;2023-04-24T09:05:09;6.70;;;4.57;;
19842;SDS011;10082;51.038;6.992;2023-04-24T09:07:37;4.73;;;4.20;;
19842;SDS011;10082;51.038;6.992;2023-04-24T09:10:10;4.63;;;4.23;;
19842;SDS011;10082;51.038;6.992;2023-04-24T09:12:39;4.90;;;4.50;;
19842;SDS011;10082;51.038;6.992;2023-04-24T09:15:08;4.60;;;4.10;;
19842;SDS011;10082;51.038;6.992;2023-04-24T09:17:35;4.60;;;4.20;;
19842;SDS011;10082;51.038;6.992;2023-04-24T09:20:04;5.27;;;4.77;;
19842;SDS011;10082;51.038;6.992;2023-04-24T09:22:31;5.43;;;4.88;;
19842;SDS011;10082;51.038;6.992;2023-04-24T09:25:02;5.40;;;4.90;;
19842;SDS011;10082;51.038;6.992;2023-04-24T09:27:31;5.07;;;4.53;;
19842;SDS011;10082;51.038;6.992;2023-04-24T09:30:01;5.80;;;5.28;;
19842;SDS011;10082;51.038;6.992;2023-04-24T09:32:28;6.67;;;5.27;;
19842;SDS011;10082;51.038;6.992;2023-04-24T09:35:10;5.57;;;5.07;;
19842;SDS011;10082;51.038;6.992;2023-04-24T09:37:39;6.95;;;6.28;;
19842;SDS011;10082;51.038;6.992;2023-04-24T09:40:07;6.95;;;5.35;;
19842;SDS011;10082;51.038;6.992;2023-04-24T09:42:38;5.13;;;4.70;;
19842;SDS011;10082;51.038;6.992;2023-04-24T09:45:10;8.97;;;6.13;;
19842;SDS011;10082;51.038;6.992;2023-04-24T09:47:38;5.53;;;5.00;;
19842;SDS011;10082;51.038;6.992;2023-04-24T09:50:09;7.37;;;5.87;;
19842;SDS011;10082;51.038;6.992;2023-04-24T09:52:39;6.40;;;5.73;;
19842;SDS011;10082;51.038;6.992;2023-04-24T09:55:11;6.55;;;5.80;;
19842;SDS011;10082;51.038;6.992;2023-04-24T09:57:52;7.82;;;6.68;;
19842;SDS011;10082;51.038;6.992;2023-04-24T10:00:23;8.17;;;6.83;;
19842;SDS011;10082;51.038;6.992;2023-04-24T10:02:56;7.70;;;6.90;;
19842;SDS011;10082;51.038;6.992;2023-04-24T10:05:24;8.98;;;8.07;;
19842;SDS011;10082;51.038;6.992;2023-04-24T10:10:41;8.45;;;7.60;;
19842;SDS011;10082;51.038;6.992;2023-04-24T10:13:09;9.25;;;8.32;;
19842;SDS011;10082;51.038;6.992;2023-04-24T10:15:39;8.40;;;7.22;;
19842;SDS011;10082;51.038;6.992;2023-04-24T10:18:07;10.37;;;7.20;;
19842;SDS011;10082;51.038;6.992;2023-04-24T10:20:36;8.60;;;7.35;;
19842;SDS011;10082;51.038;6.992;2023-04-24T10:23:04;7.85;;;7.15;;
19842;SDS011;10082;51.038;6.992;2023-04-24T10:25:32;8.52;;;6.30;;
19842;SDS011;10082;51.038;6.992;2023-04-24T10:28:00;9.32;;;6.22;;
19842;SDS011;10082;51.038;6.992;2023-04-24T10:30:29;11.07;;;7.47;;
19842;SDS011;10082;51.038;6.992;2023-04-24T10:33:01;8.18;;;6.78;;
19842;SDS011;10082;51.038;6.992;2023-04-24T10:35:30;11.27;;;7.07;;
19842;SDS011;10082;51.038;6.992;2023-04-24T10:37:59;9.02;;;7.00;;
19842;SDS011;10082;51.038;6.992;2023-04-24T10:40:30;6.55;;;5.18;;
19842;SDS011;10082;51.038;6.992;2023-04-24T10:42:59;7.78;;;6.00;;
19842;SDS011;10082;51.038;6.992;2023-04-24T10:45:28;8.35;;;5.15;;
19842;SDS011;10082;51.038;6.992;2023-04-24T10:47:59;8.20;;;5.88;;
19842;SDS011;10082;51.038;6.992;2023-04-24T10:50:30;7.30;;;5.50;;
19842;SDS011;10082;51.038;6.992;2023-04-24T10:53:12;7.95;;;6.10;;
19842;SDS011;10082;51.038;6.992;2023-04-24T10:55:44;6.85;;;5.90;;
19842;SDS011;10082;51.038;6.992;2023-04-24T10:58:12;9.10;;;5.65;;
19842;SDS011;10082;51.038;6.992;2023-04-24T11:00:40;6.82;;;3.95;;
19842;SDS011;10082;51.038;6.992;2023-04-24T11:03:22;8.13;;;5.13;;
19842;SDS011;10082;51.038;6.992;2023-04-24T11:05:53;6.60;;;5.53;;
19842;SDS011;10082;51.038;6.992;2023-04-24T11:08:28;6.80;;;4.15;;
19842;SDS011;10082;51.038;6.992;2023-04-24T11:10:57;6.65;;;4.10;;
19842;SDS011;10082;51.038;6.992;2023-04-24T11:13:27;5.28;;;3.55;;
19842;SDS011;10082;51.038;6.992;2023-04-24T11:16:15;6.63;;;3.63;;
19842;SDS011;10082;51.038;6.992;2023-04-24T11:18:50;6.72;;;3.80;;
19842;SDS011;10082;51.038;6.992;2023-04-24T11:21:21;7.03;;;3.58;;
19842;SDS011;10082;51.038;6.992;2023-04-24T11:23:48;5.75;;;3.22;;
19842;SDS011;10082;51.038;6.992;2023-04-24T11:26:20;6.57;;;3.83;;
19842;SDS011;10082;51.038;6.992;2023-04-24T11:28:51;7.00;;;3.55;;
19842;SDS011;10082;51.038;6.992;2023-04-24T11:31:34;5.72;;;3.55;;
19842;SDS011;10082;51.038;6.992;2023-04-24T11:34:06;5.97;;;3.47;;
19842;SDS011;10082;51.038;6.992;2023-04-24T11:36:36;7.07;;;3.90;;
19842;SDS011;10082;51.038;6.992;2023-04-24T11:39:03;4.38;;;3.20;;
19842;SDS011;10082;51.038;6.992;2023-04-24T11:41:31;5.93;;;3.80;;
19842;SDS011;10082;51.038;6.992;2023-04-24T11:43:58;7.38;;;3.92;;
19842;SDS011;10082;51.038;6.992;2023-04-24T11:46:27;9.05;;;3.88;;
19842;SDS011;10082;51.038;6.992;2023-04-24T11:48:56;6.68;;;4.10;;
19842;SDS011;10082;51.038;6.992;2023-04-24T11:51:25;7.13;;;4.10;;
19842;SDS011;10082;51.038;6.992;2023-04-24T11:53:55;6.60;;;3.85;;
19842;SDS011;10082;51.038;6.992;2023-04-24T11:56:22;6.18;;;3.72;;
19842;SDS011;10082;51.038;6.992;2023-04-24T11:58:51;5.80;;;4.25;;
19842;SDS011;10082;51.038;6.992;2023-04-24T12:01:19;5.80;;;3.45;;
19842;SDS011;10082;51.038;6.992;2023-04-24T12:03:47;6.07;;;3.35;;
19842;SDS011;10082;51.038;6.992;2023-04-24T12:06:16;6.25;;;3.53;;
19842;SDS011;10082;51.038;6.992;2023-04-24T12:08:45;6.45;;;3.58;;
19842;SDS011;10082;51.038;6.992;2023-04-24T12:11:15;6.13;;;3.58;;
19842;SDS011;10082;51.038;6.992;2023-04-24T12:13:44;9.55;;;4.28;;
19842;SDS011;10082;51.038;6.992;2023-04-24T12:16:12;6.15;;;3.58;;
19842;SDS011;10082;51.038;6.992;2023-04-24T12:18:43;5.88;;;2.85;;
19842;SDS011;10082;51.038;6.992;2023-04-24T12:21:14;6.68;;;4.35;;
19842;SDS011;10082;51.038;6.992;2023-04-24T12:23:42;6.80;;;4.18;;
19842;SDS011;10082;51.038;6.992;2023-04-24T12:26:09;8.27;;;4.35;;
19842;SDS011;10082;51.038;6.992;2023-04-24T12:28:38;6.22;;;3.58;;
19842;SDS011;10082;51.038;6.992;2023-04-24T12:31:06;8.20;;;3.40;;
19842;SDS011;10082;51.038;6.992;2023-04-24T12:33:34;2.97;;;2.40;;
19842;SDS011;10082;51.038;6.992;2023-04-24T12:36:02;5.80;;;3.20;;
19842;SDS011;10082;51.038;6.992;2023-04-24T12:38:30;5.03;;;2.95;;
19842;SDS011;10082;51.038;6.992;2023-04-24T12:41:05;6.97;;;2.83;;
19842;SDS011;10082;51.038;6.992;2023-04-24T12:43:33;4.05;;;2.85;;
19842;SDS011;10082;51.038;6.992;2023-04-24T12:46:02;4.60;;;2.47;;
19842;SDS011;10082;51.038;6.992;2023-04-24T12:48:29;5.90;;;2.80;;
19842;SDS011;10082;51.038;6.992;2023-04-24T12:50:57;6.18;;;3.20;;
19842;SDS011;10082;51.038;6.992;2023-04-24T12:53:26;4.72;;;2.95;;
19842;SDS011;10082;51.038;6.992;2023-04-24T12:55:56;3.55;;;2.47;;
19842;SDS011;10082;51.038;6.992;2023-04-24T12:58:29;6.13;;;2.50;;
19842;SDS011;10082;51.038;6.992;2023-04-24T13:00:56;4.75;;;2.95;;
19842;SDS011;10082;51.038;6.992;2023-04-24T13:03:25;7.35;;;2.80;;
19842;SDS011;10082;51.038;6.992;2023-04-24T13:05:52;4.32;;;2.50;;
19842;SDS011;10082;51.038;6.992;2023-04-24T13:08:19;5.95;;;2.80;;
19842;SDS011;10082;51.038;6.992;2023-04-24T13:10:46;4.68;;;2.75;;
19842;SDS011;10082;51.038;6.992;2023-04-24T13:13:13;3.60;;;2.70;;
19842;SDS011;10082;51.038;6.992;2023-04-24T13:15:41;7.07;;;3.00;;
19842;SDS011;10082;51.038;6.992;2023-04-24T13:18:08;6.00;;;3.38;;
19842;SDS011;10082;51.038;6.992;2023-04-24T13:20:37;5.32;;;3.30;;
19842;SDS011;10082;51.038;6.992;2023-04-24T13:23:05;5.10;;;2.95;;
19842;SDS011;10082;51.038;6.992;2023-04-24T13:25:34;2.97;;;2.60;;
19842;SDS011;10082;51.038;6.992;2023-04-24T13:28:04;6.82;;;3.25;;
19842;SDS011;10082;51.038;6.992;2023-04-24T13:30:32;6.55;;;3.38;;
19842;SDS011;10082;51.038;6.992;2023-04-24T13:32:59;4.90;;;2.60;;
19842;SDS011;10082;51.038;6.992;2023-04-24T13:35:27;4.18;;;3.03;;
19842;SDS011;10082;51.038;6.992;2023-04-24T13:37:57;3.92;;;2.88;;
19842;SDS011;10082;51.038;6.992;2023-04-24T13:40:24;4.05;;;2.80;;
19842;SDS011;10082;51.038;6.992;2023-04-24T13:42:52;3.38;;;2.80;;
19842;SDS011;10082;51.038;6.992;2023-04-24T13:45:19;4.35;;;2.60;;
19842;SDS011;10082;51.038;6.992;2023-04-24T13:47:47;3.92;;;2.95;;
19842;SDS011;10082;51.038;6.992;2023-04-24T13:50:14;4.38;;;3.08;;
19842;SDS011;10082;51.038;6.992;2023-04-24T13:52:41;3.13;;;2.65;;
19842;SDS011;10082;51.038;6.992;2023-04-24T13:55:09;4.07;;;2.55;;
19842;SDS011;10082;51.038;6.992;2023-04-24T13:57:37;5.00;;;2.33;;
19842;SDS011;10082;51.038;6.992;2023-04-24T14:00:05;3.53;;;2.75;;
19842;SDS011;10082;51.038;6.992;2023-04-24T14:02:35;4.70;;;2.90;;
19842;SDS011;10082;51.038;6.992;2023-04-24T14:05:02;5.28;;;2.65;;
19842;SDS011;10082;51.038;6.992;2023-04-24T14:07:30;4.30;;;2.47;;
19842;SDS011;10082;51.038;6.992;2023-04-24T14:09:57;3.35;;;2.38;;
19842;SDS011;10082;51.038;6.992;2023-04-24T14:12:25;4.65;;;3.00;;
19842;SDS011;10082;51.038;6.992;2023-04-24T14:14:53;5.95;;;3.13;;
19842;SDS011;10082;51.038;6.992;2023-04-24T14:17:20;6.38;;;2.83;;
19842;SDS011;10082;51.038;6.992;2023-04-24T14:19:47;5.45;;;2.90;;
19842;SDS011;10082;51.038;6.992;2023-04-24T14:22:15;5.53;;;2.60;;
19842;SDS011;10082;51.038;6.992;2023-04-24T14:24:42;2.90;;;2.50;;
19842;SDS011;10082;51.038;6.992;2023-04-24T14:27:09;4.93;;;3.03;;
19842;SDS011;10082;51.038;6.992;2023-04-24T14:29:38;5.40;;;3.22;;
19842;SDS011;10082;51.038;6.992;2023-04-24T14:32:05;4.72;;;2.72;;
19842;SDS011;10082;51.038;6.992;2023-04-24T14:34:34;4.75;;;3.00;;
19842;SDS011;10082;51.038;6.992;2023-04-24T14:37:01;5.97;;;3.40;;
19842;SDS011;10082;51.038;6.992;2023-04-24T14:39:28;5.00;;;3.20;;
19842;SDS011;10082;51.038;6.992;2023-04-24T14:41:56;7.50;;;3.35;;
19842;SDS011;10082;51.038;6.992;2023-04-24T14:44:23;4.35;;;3.30;;
19842;SDS011;10082;51.038;6.992;2023-04-24T14:46:52;4.38;;;2.90;;
19842;SDS011;10082;51.038;6.992;2023-04-24T14:49:19;5.38;;;3.05;;
19842;SDS011;10082;51.038;6.992;2023-04-24T14:51:46;6.82;;;2.40;;
19842;SDS011;10082;51.038;6.992;2023-04-24T14:54:13;3.00;;;2.40;;
19842;SDS011;10082;51.038;6.992;2023-04-24T14:56:40;6.35;;;2.70;;
19842;SDS011;10082;51.038;6.992;2023-04-24T14:59:08;3.35;;;2.83;;
19842;SDS011;10082;51.038;6.992;2023-04-24T15:01:35;5.05;;;3.40;;